Time;durP1;ratioP1;P1;durP2;ratioP2;P2;SDS_P1;SDS_P2;PMS_P1;PMS_P2;Temp;Humidity;BMP_temperature;BMP_pressure;BME280_temperature;BME280_humidity;BME280_pressure;Samples;Min_cycle;Max_cycle;Signal;HPM_P1;HPM_P2
2023/11/04 00:12:45;;;;;;;1.50;1.40;;;10.50;99.90;;;;;;5969420;23;20371;-87
2023/11/04 00:37:56;;;;;;;1.73;0.90;;;10.40;99.90;;;;;;5879102;24;20211;-89
2023/11/04 00:58:28;;;;;;;1.53;0.90;;;10.00;99.90;;;;;;5643713;24;20294;-88
2023/11/04 01:23:48;;;;;;;1.20;0.70;;;9.50;99.90;;;;;;5892346;24;20225;-86
2023/11/04 01:33:41;;;;;;;1.10;0.80;;;9.20;99.90;;;;;;6197828;22;20204;-87
2023/11/04 01:59:17;;;;;;;0.57;0.57;;;8.70;99.90;;;;;;5981908;23;20864;-85
2023/11/04 02:03:37;;;;;;;1.33;0.97;;;8.70;99.90;;;;;;5942899;23;20217;-87
2023/11/04 02:24:29;;;;;;;0.80;0.80;;;8.30;99.90;;;;;;5881903;24;20194;-86
2023/11/04 03:19:59;;;;;;;1.53;1.10;;;8.30;99.90;;;;;;6158771;22;20174;-87
2023/11/04 03:39:57;;;;;;;1.30;1.20;;;8.20;99.90;;;;;;5910267;23;20206;-87
2023/11/04 04:05:42;;;;;;;1.30;1.23;;;8.10;99.90;;;;;;5810509;24;20191;-88
2023/11/04 04:31:23;;;;;;;2.00;1.33;;;8.20;99.90;;;;;;5704435;24;20544;-85
2023/11/04 04:35:41;;;;;;;1.30;1.20;;;8.30;99.90;;;;;;5621226;25;20197;-89
2023/11/04 05:16:52;;;;;;;1.97;1.50;;;8.50;99.90;;;;;;5735652;24;20342;-87
2023/11/04 05:42:13;;;;;;;1.80;1.70;;;8.50;99.90;;;;;;6066114;23;20202;-88
2023/11/04 06:12:35;;;;;;;2.47;2.00;;;8.70;99.90;;;;;;5793527;24;20186;-86
2023/11/04 06:43:06;;;;;;;2.10;1.87;;;8.70;99.90;;;;;;5883093;23;20269;-87
2023/11/04 07:03:13;;;;;;;2.80;2.00;;;8.90;99.90;;;;;;5744796;24;20190;-86
2023/11/04 07:43:53;;;;;;;2.93;2.30;;;9.30;99.90;;;;;;6040529;23;20252;-87
2023/11/04 08:14:06;;;;;;;3.90;2.60;;;9.50;99.90;;;;;;5935962;23;20262;-85
2023/11/04 08:34:39;;;;;;;3.37;2.30;;;10.10;99.90;;;;;;5904790;24;20269;-85
2023/11/04 08:59:19;;;;;;;3.23;2.33;;;10.80;99.90;;;;;;5796967;24;20261;-86
2023/11/04 09:43:39;;;;;;;2.50;2.30;;;10.90;99.90;;;;;;6129492;23;20182;-86
2023/11/04 09:53:12;;;;;;;2.93;2.63;;;10.80;99.90;;;;;;6214327;22;20188;31
2023/11/04 10:18:49;;;;;;;4.53;2.53;;;11.50;98.80;;;;;;6234870;23;20172;-87
2023/11/04 10:23:10;;;;;;;3.57;2.50;;;11.50;98.20;;;;;;6089006;23;20262;-87
2023/11/04 10:44:04;;;;;;;3.27;2.77;;;11.80;95.70;;;;;;5980875;23;20187;-88
2023/11/04 11:09:05;;;;;;;4.43;2.83;;;11.60;97.10;;;;;;6006042;23;20242;-88
2023/11/04 11:39:46;;;;;;;3.80;2.93;;;11.70;99.10;;;;;;6024252;23;20175;-88
2023/11/04 12:10:01;;;;;;;2.30;2.10;;;12.20;92.20;;;;;;5836629;24;20178;-87
2023/11/04 12:40:34;;;;;;;4.17;2.50;;;12.20;93.50;;;;;;5724104;24;20236;-87
2023/11/04 14:01:34;;;;;;;3.73;2.00;;;11.60;94.70;;;;;;6013284;23;20174;-86
2023/11/04 14:27:04;;;;;;;2.43;2.23;;;11.00;96.30;;;;;;6174134;23;20168;-86
2023/11/04 14:52:23;;;;;;;3.13;2.50;;;10.80;98.20;;;;;;6066160;23;20179;-86
2023/11/04 15:17:29;;;;;;;3.17;2.87;;;10.60;99.90;;;;;;6087291;23;20206;-86
2023/11/04 15:38:03;;;;;;;4.37;3.73;;;9.40;99.90;;;;;;5907358;24;20383;-88
2023/11/04 16:02:45;;;;;;;22.13;15.33;;;7.70;99.90;;;;;;5830305;24;20566;-86
2023/11/04 16:23:14;;;;;;;15.70;10.83;;;6.80;99.90;;;;;;5908974;24;20274;-87
2023/11/04 16:48:55;;;;;;;9.93;7.67;;;6.10;99.90;;;;;;5807602;24;20188;-88
2023/11/04 17:24:21;;;;;;;42.07;27.17;;;5.20;99.90;;;;;;5988838;23;20215;-89
2023/11/04 17:39:36;;;;;;;18.23;12.77;;;5.30;99.90;;;;;;6175244;22;20400;-85
2023/11/04 18:10:03;;;;;;;26.37;16.67;;;6.60;99.90;;;;;;6188107;22;20250;-86
2023/11/04 18:35:25;;;;;;;25.53;18.07;;;6.60;99.90;;;;;;5790241;24;20197;-88
2023/11/04 19:20:43;;;;;;;24.50;16.77;;;6.30;99.90;;;;;;5839192;24;20175;-84
2023/11/04 19:51:20;;;;;;;25.33;19.43;;;5.30;99.90;;;;;;6033956;23;20167;-86
2023/11/04 20:16:22;;;;;;;36.97;24.53;;;4.70;99.90;;;;;;5747940;24;20506;-88
2023/11/04 21:22:14;;;;;;;41.13;24.40;;;3.70;99.90;;;;;;5621504;25;20208;-87
2023/11/04 21:42:30;;;;;;;40.70;26.80;;;3.40;99.90;;;;;;5786868;24;20607;-89
2023/11/04 22:13:18;;;;;;;50.57;31.60;;;3.60;99.90;;;;;;5956712;23;20198;-87
2023/11/04 22:28:24;;;;;;;52.97;32.73;;;3.30;99.90;;;;;;5958935;23;20185;-86
2023/11/04 22:53:48;;;;;;;52.60;33.23;;;3.00;99.90;;;;;;5861379;24;20184;-86
2023/11/04 23:14:07;;;;;;;57.80;35.43;;;2.80;99.90;;;;;;5782325;24;20222;-87
2023/11/04 23:44:15;;;;;;;65.77;40.30;;;2.60;99.90;;;;;;5970544;23;20223;-87
